Weather observations for the past three days for
Charlottesville-Albemarle Airport
Metric (Imperial)
Date Time (edt) Wind (kph) Vis. (km) Weather Sky Cond. Temperature (ºC) Relative Humidity Wind Chill (°C) Heat Index (°C) Pressure Precipitation (cm)
Air Dwpt 6 hour altimeter (cm) sea level (mb) 1 hr 3 hr 6 hr
Max. Min.
02 17:53 NE 7 16.09 Overcast OVC095 15 -0.6 35% 75.84 1010.9
02 16:53 E 11 16.09 Overcast OVC085 15 0 36% 75.84 1010.8
02 15:53 Vrbl 7 16.09 Mostly Cloudy BKN080 15.6 -1.1 32% 75.87 1011.1
02 14:53 Vrbl 9 16.09 Mostly Cloudy BKN070 16.1 -0.6 32% 75.92 1011.9
02 13:53 Vrbl 7 16.09 A Few Clouds FEW065 14.4 -1.7 14.4 10 33% 76 1012.8
02 12:53 Vrbl 11 16.09 A Few Clouds FEW060 13.9 -1.7 34% 76.05 1013.6
02 11:53 N 15 16.09 Fair CLR 13.3 -1.7 36% 76.07 1014.0
02 10:53 Vrbl 11 16.09 Fair CLR 12.8 -2.2 36% 76.1 1014.2
02 09:53 Vrbl 9 16.09 Fair CLR 11.7 -1.1 41% 76.1 1014.2
02 08:53 NW 9 16.09 Fair CLR 10.6 0 48% 76.07 1013.8
02 07:53 N 13 16.09 Fair CLR 10.6 -0.6 12.8 9.4 46% 76.05 1013.6
02 06:53 N 9 16.09 A Few Clouds FEW080 10 0 50% 9 76.02 1013.2
02 05:53 N 11 16.09 Partly Cloudy SCT070 10.6 0.6 50% 76 1012.9
02 04:53 N 6 16.09 Partly Cloudy SCT095 11.1 1.7 53% 75.97 1012.4
02 03:53 Calm 16.09 A Few Clouds FEW095 11.1 2.8 57% 75.97 1012.4
02 02:53 N 6 16.09 Fair CLR 11.7 3.3 57% 75.95 1012.2
02 01:53 N 6 16.09 A Few Clouds FEW060 FEW100 12.8 3.9 16.7 12.2 55% 75.95 1012.1
02 00:53 N 7 16.09 Overcast SCT065 OVC110 13.3 4.4 55% 75.97 1012.4
01 23:53 NW 11 16.09 Overcast BKN070 BKN090 OVC110 12.8 6.1 64% 75.92 1011.8
01 22:53 S 15 16.09 Mostly Cloudy BKN120 12.8 4.4 57% 75.87 1011.3
01 21:53 S 11 16.09 Mostly Cloudy BKN110 14.4 3.9 50% 75.84 1010.9
01 20:53 S 9 16.09 Fair CLR 13.9 2.8 47% 75.77 1010.0
01 19:53 S 17 16.09 Fair CLR 16.7 1.7 20.6 16.7 37% 75.72 1009.3
01 18:53 S 22 16.09 Fair CLR 18.3 1.7 33% 75.72 1009.1
01 17:53 SW 19 16.09 Fair CLR 19.4 1.1 30% 75.74 1009.5
01 16:53 S 30 G 43 16.09 Light Rain CLR 20 0 26% 75.79 1010.1
01 15:53 S 22 G 33 16.09 Fair CLR 19.4 0.6 29% 75.82 1010.7
01 14:53 S 22 G 37 16.09 Fair CLR 19.4 0.6 29% 75.92 1011.9
01 13:53 SE 20 G 31 16.09 Fair CLR 18.3 0 18.9 9.4 29% 76 1012.9
01 12:53 S 13 G 31 16.09 Fair CLR 16.7 0.6 34% 76.05 1013.5
01 11:53 Calm 16.09 Fair CLR 15.6 1.1 38% 76.12 1014.6
01 10:53 SE 11 16.09 Fair CLR 14.4 1.1 41% 76.17 1015.4
01 09:53 SW 11 16.09 Fair CLR 12.2 0.6 45% 76.2 1015.7
01 08:53 S 9 16.09 Fair CLR 11.1 2.8 57% 76.17 1015.5
01 07:53 S 9 16.09 Fair CLR 9.4 3.3 9.4 5.6 66% 8 76.2 1015.5
01 06:53 S 7 16.09 Fair CLR 7.2 2.8 74% 6 76.17 1015.2
01 05:53 Calm 16.09 Fair CLR 7.2 2.2 71% 76.15 1014.9
01 04:53 Calm 16.09 Fair CLR 7.2 2.2 71% 76.15 1014.8
01 03:53 Calm 16.09 Fair CLR 7.8 2.8 71% 76.12 1014.6
01 02:53 N 7 16.09 Fair CLR 8.9 2.2 63% 8 76.1 1014.2
01 01:53 Calm 16.09 Fair CLR 8.3 2.2 14.4 8.3 66% 76.12 1014.6
01 00:53 N 9 16.09 Fair CLR 9.4 2.2 61% 8 76.1 1014.4
30 23:53 NW 7 16.09 Fair CLR 9.4 2.8 64% 9 76.07 1014.0
30 22:53 NW 7 16.09 Fair CLR 10 3.3 63% 9 76.07 1014.1
30 21:53 N 6 16.09 Fair CLR 11.1 2.8 57% 76.07 1014.0
30 20:53 N 17 G 28 16.09 Fair CLR 12.8 1.7 47% 75.97 1012.6
30 19:53 NW 13 16.09 Fair CLR 14.4 1.1 20.6 14.4 41% 75.9 1011.6
30 18:53 NW 13 G 30 16.09 Fair CLR 16.7 -0.6 31% 75.82 1010.6
30 17:53 NW 13 G 33 16.09 Fair CLR 18.3 -0.6 28% 75.77 1009.7
30 16:53 NW 19 G 33 16.09 Fair CLR 19.4 0.6 29% 75.72 1009.1
30 15:53 NW 17 G 30 16.09 Partly Cloudy SCT080 20 1.7 30% 75.69 1008.7
30 14:53 Vrbl 11 16.09 Overcast OVC075 19.4 2.2 32% 75.67 1008.3
30 13:53 NW 13 16.09 Mostly Cloudy BKN070 19.4 3.9 20 12.8 36% 75.67 1008.4
30 12:53 NW 6 16.09 Mostly Cloudy BKN065 18.3 3.9 39% 75.72 1009.0
30 11:53 NW 15 16.09 Partly Cloudy SCT060 17.8 4.4 41% 75.77 1009.7
30 10:53 NW 13 16.09 Partly Cloudy SCT065 17.2 5 45% 75.79 1010.1
30 09:53 NW 9 16.09 Fair CLR 16.7 8.3 58% 75.79 1009.9
30 08:53 Vrbl 6 16.09 Fair CLR 14.4 12.2 87% 75.77 1009.8
30 07:53 Calm 16.09 Fair CLR 12.8 11.7 13.3 10 93% 75.69 1008.9
30 06:53 NW 6 16.09 Fair CLR 10.6 10.6 100% 75.67 1008.6
30 05:53 Calm 16.09 Overcast BKN050 OVC060 11.7 11.1 96% 75.69 1008.8
30 04:53 SW 6 16.09 Overcast OVC060 11.7 11.1 96% 75.62 1008.0
30 03:53 W 6 12.87 Fair CLR 11.7 11.1 96% 75.59 1007.6
30 02:53 Calm 4.83 Fog/Mist CLR 12.2 12.2 100% 75.59 1007.4
30 01:53 Calm 14.48 Fair CLR 13.3 13.3 16.1 13.3 100% 75.62 1007.6 0.18
30 00:53 SW 6 4.83 Fog/Mist SCT055 13.9 13.9 100% 75.62 1007.7
29 23:53 Vrbl 9 1.61 Fog/Mist VV002 13.9 13.9 100% 75.62 1007.6
29 22:53 Calm 2.41 Fog/Mist FEW002 SCT012 15 15 100% 75.62 1007.6 0.18
29 21:53 Vrbl 7 4.83 Light Rain Fog/Mist BKN001 OVC012 16.1 15.6 97% 75.64 1008.0 0.15
29 20:53 S 9 6.44 Fog/Mist OVC019 16.1 15.6 97% 75.59 1007.2 0.03
29 19:53 Calm 1.21 Light Rain Fog/Mist BKN005 OVC009 15.6 15.6 16.1 15 100% 75.59 1007.2 0.03 0.33
29 18:53 Calm 3.22 Fog/Mist OVC006 16.1 15.6 97% 75.57 1007.1 0.03
Date Time (edt) Wind (kph) Vis. (km) Weather Sky Cond. Air Dwpt Max. Min. Relative Humidity Wind Chill (°C) Heat Index (°C) altimeter (cm) sea level (mb) 1 hr 3 hr 6 hr
6 hour
Temperature (ºC) Pressure Precipitation (cm)